sensor_id;sensor_type;location;lat;lon;timestamp;P1;durP1;ratioP1;P2;durP2;ratioP2
13847;SDS011;6994;49.752;6.094;2022-09-12T00:02:11;26.77;;;7.65;;
13847;SDS011;6994;49.752;6.094;2022-09-12T00:04:39;22.60;;;7.85;;
13847;SDS011;6994;49.752;6.094;2022-09-12T00:07:06;28.67;;;8.02;;
13847;SDS011;6994;49.752;6.094;2022-09-12T00:09:33;22.77;;;7.57;;
13847;SDS011;6994;49.752;6.094;2022-09-12T00:12:00;25.62;;;9.65;;
13847;SDS011;6994;49.752;6.094;2022-09-12T00:14:28;15.75;;;8.15;;
13847;SDS011;6994;49.752;6.094;2022-09-12T00:16:58;23.38;;;7.55;;
13847;SDS011;6994;49.752;6.094;2022-09-12T00:19:26;66.82;;;9.80;;
13847;SDS011;6994;49.752;6.094;2022-09-12T00:21:52;62.78;;;10.18;;
13847;SDS011;6994;49.752;6.094;2022-09-12T00:24:20;42.10;;;9.93;;
13847;SDS011;6994;49.752;6.094;2022-09-12T00:26:48;66.40;;;11.27;;
13847;SDS011;6994;49.752;6.094;2022-09-12T00:29:17;57.30;;;12.00;;
13847;SDS011;6994;49.752;6.094;2022-09-12T00:31:43;60.75;;;10.20;;
13847;SDS011;6994;49.752;6.094;2022-09-12T00:34:11;59.90;;;9.20;;
13847;SDS011;6994;49.752;6.094;2022-09-12T00:36:38;48.17;;;10.07;;
13847;SDS011;6994;49.752;6.094;2022-09-12T00:39:06;27.67;;;7.25;;
13847;SDS011;6994;49.752;6.094;2022-09-12T00:41:33;45.38;;;8.55;;
13847;SDS011;6994;49.752;6.094;2022-09-12T00:47:36;32.42;;;8.30;;
13847;SDS011;6994;49.752;6.094;2022-09-12T00:49:17;24.80;;;9.15;;
13847;SDS011;6994;49.752;6.094;2022-09-12T00:51:54;49.97;;;10.63;;
13847;SDS011;6994;49.752;6.094;2022-09-12T00:54:23;52.62;;;9.13;;
13847;SDS011;6994;49.752;6.094;2022-09-12T00:56:49;27.80;;;7.72;;
13847;SDS011;6994;49.752;6.094;2022-09-12T00:59:19;39.47;;;8.10;;
13847;SDS011;6994;49.752;6.094;2022-09-12T01:01:43;48.13;;;7.45;;
13847;SDS011;6994;49.752;6.094;2022-09-12T01:04:11;53.35;;;7.95;;
13847;SDS011;6994;49.752;6.094;2022-09-12T01:06:39;36.35;;;8.52;;
13847;SDS011;6994;49.752;6.094;2022-09-12T01:09:05;30.65;;;7.43;;
13847;SDS011;6994;49.752;6.094;2022-09-12T01:11:35;65.57;;;7.53;;
13847;SDS011;6994;49.752;6.094;2022-09-12T01:14:02;43.95;;;7.72;;
13847;SDS011;6994;49.752;6.094;2022-09-12T01:16:30;44.00;;;7.15;;
13847;SDS011;6994;49.752;6.094;2022-09-12T01:25:08;43.72;;;8.25;;
13847;SDS011;6994;49.752;6.094;2022-09-12T01:27:47;40.47;;;8.50;;
13847;SDS011;6994;49.752;6.094;2022-09-12T01:30:46;61.20;;;8.63;;
13847;SDS011;6994;49.752;6.094;2022-09-12T01:38:41;40.63;;;8.98;;
13847;SDS011;6994;49.752;6.094;2022-09-12T01:41:24;26.58;;;7.15;;
13847;SDS011;6994;49.752;6.094;2022-09-12T01:43:56;55.95;;;8.38;;
13847;SDS011;6994;49.752;6.094;2022-09-12T01:49:37;42.72;;;8.48;;
13847;SDS011;6994;49.752;6.094;2022-09-12T01:52:08;77.00;;;9.00;;
13847;SDS011;6994;49.752;6.094;2022-09-12T01:54:40;68.15;;;8.48;;
13847;SDS011;6994;49.752;6.094;2022-09-12T01:57:12;55.90;;;8.88;;
13847;SDS011;6994;49.752;6.094;2022-09-12T01:59:42;49.55;;;8.38;;
13847;SDS011;6994;49.752;6.094;2022-09-12T02:02:11;44.28;;;7.70;;
13847;SDS011;6994;49.752;6.094;2022-09-12T02:04:40;48.50;;;7.70;;
13847;SDS011;6994;49.752;6.094;2022-09-12T02:07:12;56.92;;;7.57;;
13847;SDS011;6994;49.752;6.094;2022-09-12T02:09:40;52.70;;;8.90;;
13847;SDS011;6994;49.752;6.094;2022-09-12T02:12:05;28.20;;;7.32;;
13847;SDS011;6994;49.752;6.094;2022-09-12T02:14:42;43.17;;;7.57;;
13847;SDS011;6994;49.752;6.094;2022-09-12T02:17:18;39.25;;;7.85;;
13847;SDS011;6994;49.752;6.094;2022-09-12T02:19:46;34.75;;;7.50;;
13847;SDS011;6994;49.752;6.094;2022-09-12T02:22:16;42.25;;;7.82;;
13847;SDS011;6994;49.752;6.094;2022-09-12T02:24:42;27.05;;;6.87;;
13847;SDS011;6994;49.752;6.094;2022-09-12T02:27:10;32.92;;;7.87;;
13847;SDS011;6994;49.752;6.094;2022-09-12T02:29:42;35.42;;;7.30;;
13847;SDS011;6994;49.752;6.094;2022-09-12T02:32:29;34.55;;;7.35;;
13847;SDS011;6994;49.752;6.094;2022-09-12T02:35:02;16.60;;;6.80;;
13847;SDS011;6994;49.752;6.094;2022-09-12T02:40:16;29.30;;;6.57;;
13847;SDS011;6994;49.752;6.094;2022-09-12T02:42:43;31.80;;;7.05;;
13847;SDS011;6994;49.752;6.094;2022-09-12T02:45:10;28.55;;;6.35;;
13847;SDS011;6994;49.752;6.094;2022-09-12T02:47:41;29.80;;;9.02;;
13847;SDS011;6994;49.752;6.094;2022-09-12T02:50:10;30.15;;;7.25;;
13847;SDS011;6994;49.752;6.094;2022-09-12T02:52:37;24.05;;;7.28;;
13847;SDS011;6994;49.752;6.094;2022-09-12T02:55:05;19.87;;;6.68;;
13847;SDS011;6994;49.752;6.094;2022-09-12T02:57:32;28.23;;;9.15;;
13847;SDS011;6994;49.752;6.094;2022-09-12T03:00:00;42.67;;;8.18;;
13847;SDS011;6994;49.752;6.094;2022-09-12T03:08:15;28.08;;;6.75;;
13847;SDS011;6994;49.752;6.094;2022-09-12T03:11:14;13.52;;;6.53;;
13847;SDS011;6994;49.752;6.094;2022-09-12T03:16:11;22.08;;;6.10;;
13847;SDS011;6994;49.752;6.094;2022-09-12T03:19:02;20.35;;;6.15;;
13847;SDS011;6994;49.752;6.094;2022-09-12T03:21:34;12.02;;;5.95;;
13847;SDS011;6994;49.752;6.094;2022-09-12T03:24:47;22.13;;;6.53;;
13847;SDS011;6994;49.752;6.094;2022-09-12T03:29:30;13.02;;;6.00;;
13847;SDS011;6994;49.752;6.094;2022-09-12T03:31:58;19.75;;;5.43;;
13847;SDS011;6994;49.752;6.094;2022-09-12T03:34:26;21.65;;;5.62;;
13847;SDS011;6994;49.752;6.094;2022-09-12T03:36:53;15.60;;;5.45;;
13847;SDS011;6994;49.752;6.094;2022-09-12T03:39:23;14.87;;;7.62;;
13847;SDS011;6994;49.752;6.094;2022-09-12T03:41:50;24.65;;;6.53;;
13847;SDS011;6994;49.752;6.094;2022-09-12T03:44:17;14.30;;;6.30;;
13847;SDS011;6994;49.752;6.094;2022-09-12T03:46:44;17.90;;;7.10;;
13847;SDS011;6994;49.752;6.094;2022-09-12T03:49:11;20.08;;;5.90;;
13847;SDS011;6994;49.752;6.094;2022-09-12T03:51:38;45.28;;;6.28;;
13847;SDS011;6994;49.752;6.094;2022-09-12T03:54:06;27.83;;;6.03;;
13847;SDS011;6994;49.752;6.094;2022-09-12T03:56:33;38.83;;;7.30;;
13847;SDS011;6994;49.752;6.094;2022-09-12T03:59:00;21.02;;;4.70;;
13847;SDS011;6994;49.752;6.094;2022-09-12T04:01:27;30.92;;;6.47;;
13847;SDS011;6994;49.752;6.094;2022-09-12T04:03:55;21.25;;;7.18;;
13847;SDS011;6994;49.752;6.094;2022-09-12T04:06:22;36.38;;;6.97;;
13847;SDS011;6994;49.752;6.094;2022-09-12T04:08:50;23.73;;;5.30;;
13847;SDS011;6994;49.752;6.094;2022-09-12T04:11:17;47.15;;;5.35;;
13847;SDS011;6994;49.752;6.094;2022-09-12T04:13:45;39.95;;;6.25;;
13847;SDS011;6994;49.752;6.094;2022-09-12T04:16:12;35.10;;;5.72;;
13847;SDS011;6994;49.752;6.094;2022-09-12T04:18:39;28.73;;;5.12;;
13847;SDS011;6994;49.752;6.094;2022-09-12T04:21:11;46.67;;;5.87;;
13847;SDS011;6994;49.752;6.094;2022-09-12T04:23:37;49.63;;;5.53;;
13847;SDS011;6994;49.752;6.094;2022-09-12T04:26:04;26.95;;;5.07;;
13847;SDS011;6994;49.752;6.094;2022-09-12T04:28:34;41.42;;;5.62;;
13847;SDS011;6994;49.752;6.094;2022-09-12T04:31:05;28.15;;;5.20;;
13847;SDS011;6994;49.752;6.094;2022-09-12T04:33:28;32.05;;;5.20;;
13847;SDS011;6994;49.752;6.094;2022-09-12T04:36:01;28.42;;;5.37;;
13847;SDS011;6994;49.752;6.094;2022-09-12T04:38:24;19.20;;;5.35;;
13847;SDS011;6994;49.752;6.094;2022-09-12T04:40:52;22.10;;;5.22;;
13847;SDS011;6994;49.752;6.094;2022-09-12T04:43:20;10.45;;;4.68;;
13847;SDS011;6994;49.752;6.094;2022-09-12T04:45:47;31.40;;;5.45;;
13847;SDS011;6994;49.752;6.094;2022-09-12T04:48:15;15.70;;;5.07;;
13847;SDS011;6994;49.752;6.094;2022-09-12T04:50:42;15.55;;;6.53;;
13847;SDS011;6994;49.752;6.094;2022-09-12T04:53:09;12.75;;;5.25;;
13847;SDS011;6994;49.752;6.094;2022-09-12T04:55:36;20.52;;;4.93;;
13847;SDS011;6994;49.752;6.094;2022-09-12T04:58:03;9.38;;;4.78;;
13847;SDS011;6994;49.752;6.094;2022-09-12T05:00:31;14.13;;;4.15;;
13847;SDS011;6994;49.752;6.094;2022-09-12T05:02:59;13.68;;;4.80;;
13847;SDS011;6994;49.752;6.094;2022-09-12T05:05:26;38.55;;;5.87;;
13847;SDS011;6994;49.752;6.094;2022-09-12T05:07:53;16.00;;;4.80;;
13847;SDS011;6994;49.752;6.094;2022-09-12T05:10:20;15.20;;;4.85;;
13847;SDS011;6994;49.752;6.094;2022-09-12T05:12:47;17.77;;;5.22;;
13847;SDS011;6994;49.752;6.094;2022-09-12T05:15:15;15.82;;;4.65;;
13847;SDS011;6994;49.752;6.094;2022-09-12T05:17:43;13.60;;;5.65;;
13847;SDS011;6994;49.752;6.094;2022-09-12T05:20:11;11.10;;;4.32;;
13847;SDS011;6994;49.752;6.094;2022-09-12T05:22:38;8.07;;;4.62;;
13847;SDS011;6994;49.752;6.094;2022-09-12T05:25:06;24.50;;;4.20;;
13847;SDS011;6994;49.752;6.094;2022-09-12T05:27:33;36.72;;;5.40;;
13847;SDS011;6994;49.752;6.094;2022-09-12T05:30:01;20.90;;;5.10;;
13847;SDS011;6994;49.752;6.094;2022-09-12T05:32:32;34.25;;;6.95;;
13847;SDS011;6994;49.752;6.094;2022-09-12T05:34:59;28.87;;;4.60;;
13847;SDS011;6994;49.752;6.094;2022-09-12T05:37:26;17.75;;;6.40;;
13847;SDS011;6994;49.752;6.094;2022-09-12T05:39:53;29.83;;;5.60;;
13847;SDS011;6994;49.752;6.094;2022-09-12T05:42:21;27.48;;;5.55;;
13847;SDS011;6994;49.752;6.094;2022-09-12T05:44:49;22.70;;;5.97;;
13847;SDS011;6994;49.752;6.094;2022-09-12T05:47:16;8.52;;;4.95;;
13847;SDS011;6994;49.752;6.094;2022-09-12T05:49:43;10.98;;;4.37;;
13847;SDS011;6994;49.752;6.094;2022-09-12T05:52:10;13.02;;;5.97;;
13847;SDS011;6994;49.752;6.094;2022-09-12T05:54:37;7.50;;;6.22;;
13847;SDS011;6994;49.752;6.094;2022-09-12T05:57:05;9.68;;;7.87;;
13847;SDS011;6994;49.752;6.094;2022-09-12T05:59:32;22.85;;;6.68;;
13847;SDS011;6994;49.752;6.094;2022-09-12T06:01:59;17.35;;;7.45;;
13847;SDS011;6994;49.752;6.094;2022-09-12T06:04:27;22.30;;;7.12;;
13847;SDS011;6994;49.752;6.094;2022-09-12T06:06:54;18.58;;;6.65;;
13847;SDS011;6994;49.752;6.094;2022-09-12T06:09:21;28.10;;;7.60;;
13847;SDS011;6994;49.752;6.094;2022-09-12T06:11:49;27.05;;;9.13;;
13847;SDS011;6994;49.752;6.094;2022-09-12T06:14:17;30.20;;;8.88;;
13847;SDS011;6994;49.752;6.094;2022-09-12T06:16:43;47.72;;;7.35;;
13847;SDS011;6994;49.752;6.094;2022-09-12T06:19:14;32.53;;;7.35;;
13847;SDS011;6994;49.752;6.094;2022-09-12T06:21:40;24.23;;;7.28;;
13847;SDS011;6994;49.752;6.094;2022-09-12T06:24:08;14.77;;;6.97;;
13847;SDS011;6994;49.752;6.094;2022-09-12T06:26:36;15.43;;;7.15;;
13847;SDS011;6994;49.752;6.094;2022-09-12T06:29:03;8.77;;;6.32;;
13847;SDS011;6994;49.752;6.094;2022-09-12T06:31:32;9.27;;;6.25;;
13847;SDS011;6994;49.752;6.094;2022-09-12T06:34:03;9.55;;;6.78;;
13847;SDS011;6994;49.752;6.094;2022-09-12T06:36:30;7.70;;;6.32;;
13847;SDS011;6994;49.752;6.094;2022-09-12T06:38:57;11.98;;;6.53;;
13847;SDS011;6994;49.752;6.094;2022-09-12T06:41:24;25.05;;;6.80;;
13847;SDS011;6994;49.752;6.094;2022-09-12T06:43:50;15.57;;;6.20;;
13847;SDS011;6994;49.752;6.094;2022-09-12T06:46:18;8.48;;;6.10;;
13847;SDS011;6994;49.752;6.094;2022-09-12T06:48:45;6.57;;;5.15;;
13847;SDS011;6994;49.752;6.094;2022-09-12T06:51:13;7.55;;;6.32;;
13847;SDS011;6994;49.752;6.094;2022-09-12T06:53:39;14.48;;;4.68;;
13847;SDS011;6994;49.752;6.094;2022-09-12T06:56:18;15.00;;;5.03;;
13847;SDS011;6994;49.752;6.094;2022-09-12T06:58:40;5.50;;;4.28;;
13847;SDS011;6994;49.752;6.094;2022-09-12T07:01:11;9.57;;;5.35;;
13847;SDS011;6994;49.752;6.094;2022-09-12T07:03:38;24.27;;;4.50;;
13847;SDS011;6994;49.752;6.094;2022-09-12T07:06:06;8.30;;;5.18;;
13847;SDS011;6994;49.752;6.094;2022-09-12T07:08:35;11.23;;;4.90;;
13847;SDS011;6994;49.752;6.094;2022-09-12T07:11:18;19.60;;;6.12;;
13847;SDS011;6994;49.752;6.094;2022-09-12T07:13:45;9.13;;;5.40;;
13847;SDS011;6994;49.752;6.094;2022-09-12T07:16:12;24.02;;;5.53;;
13847;SDS011;6994;49.752;6.094;2022-09-12T07:18:39;16.25;;;5.68;;
13847;SDS011;6994;49.752;6.094;2022-09-12T07:21:07;8.95;;;5.00;;
13847;SDS011;6994;49.752;6.094;2022-09-12T07:23:33;12.75;;;5.03;;
13847;SDS011;6994;49.752;6.094;2022-09-12T07:26:01;16.37;;;5.30;;
13847;SDS011;6994;49.752;6.094;2022-09-12T07:28:30;16.05;;;5.60;;
13847;SDS011;6994;49.752;6.094;2022-09-12T07:30:56;10.60;;;5.18;;
13847;SDS011;6994;49.752;6.094;2022-09-12T07:33:24;9.23;;;5.65;;
13847;SDS011;6994;49.752;6.094;2022-09-12T07:35:50;16.25;;;6.05;;
13847;SDS011;6994;49.752;6.094;2022-09-12T07:38:17;8.82;;;6.70;;
13847;SDS011;6994;49.752;6.094;2022-09-12T07:40:45;15.18;;;5.90;;
13847;SDS011;6994;49.752;6.094;2022-09-12T07:43:12;15.15;;;6.12;;
13847;SDS011;6994;49.752;6.094;2022-09-12T07:45:40;14.73;;;6.32;;
13847;SDS011;6994;49.752;6.094;2022-09-12T07:48:08;12.68;;;6.05;;
13847;SDS011;6994;49.752;6.094;2022-09-12T07:50:36;6.82;;;5.97;;
13847;SDS011;6994;49.752;6.094;2022-09-12T07:53:03;6.35;;;5.37;;
13847;SDS011;6994;49.752;6.094;2022-09-12T07:55:30;5.80;;;5.25;;
13847;SDS011;6994;49.752;6.094;2022-09-12T07:57:57;10.13;;;8.38;;
13847;SDS011;6994;49.752;6.094;2022-09-12T08:00:24;7.82;;;7.12;;
13847;SDS011;6994;49.752;6.094;2022-09-12T08:02:52;8.57;;;7.37;;
13847;SDS011;6994;49.752;6.094;2022-09-12T08:05:19;7.28;;;5.55;;
13847;SDS011;6994;49.752;6.094;2022-09-12T08:07:46;9.70;;;6.12;;
13847;SDS011;6994;49.752;6.094;2022-09-12T08:10:13;7.05;;;5.97;;
13847;SDS011;6994;49.752;6.094;2022-09-12T08:12:40;6.32;;;5.62;;
13847;SDS011;6994;49.752;6.094;2022-09-12T08:15:08;6.70;;;6.00;;
13847;SDS011;6994;49.752;6.094;2022-09-12T08:17:36;6.62;;;6.03;;
13847;SDS011;6994;49.752;6.094;2022-09-12T08:20:04;9.43;;;6.18;;
13847;SDS011;6994;49.752;6.094;2022-09-12T08:22:32;5.90;;;5.32;;
13847;SDS011;6994;49.752;6.094;2022-09-12T08:24:59;6.28;;;5.68;;
13847;SDS011;6994;49.752;6.094;2022-09-12T08:27:26;5.80;;;5.30;;
13847;SDS011;6994;49.752;6.094;2022-09-12T08:29:54;10.32;;;6.00;;
13847;SDS011;6994;49.752;6.094;2022-09-12T08:32:22;6.90;;;5.32;;
13847;SDS011;6994;49.752;6.094;2022-09-12T08:34:50;8.00;;;5.90;;
13847;SDS011;6994;49.752;6.094;2022-09-12T08:37:18;6.97;;;6.28;;
13847;SDS011;6994;49.752;6.094;2022-09-12T08:39:45;12.07;;;6.43;;
13847;SDS011;6994;49.752;6.094;2022-09-12T08:42:16;6.15;;;5.57;;
13847;SDS011;6994;49.752;6.094;2022-09-12T08:44:55;8.07;;;7.28;;
13847;SDS011;6994;49.752;6.094;2022-09-12T08:47:43;6.57;;;5.82;;
13847;SDS011;6994;49.752;6.094;2022-09-12T08:57:56;8.02;;;6.68;;
13847;SDS011;6994;49.752;6.094;2022-09-12T09:00:24;7.32;;;6.62;;
13847;SDS011;6994;49.752;6.094;2022-09-12T09:08:24;8.27;;;6.78;;
13847;SDS011;6994;49.752;6.094;2022-09-12T09:14:10;11.18;;;8.43;;
13847;SDS011;6994;49.752;6.094;2022-09-12T09:16:50;8.98;;;8.18;;
13847;SDS011;6994;49.752;6.094;2022-09-12T09:19:21;8.55;;;7.70;;
13847;SDS011;6994;49.752;6.094;2022-09-12T09:22:03;7.97;;;7.18;;
13847;SDS011;6994;49.752;6.094;2022-09-12T09:24:33;8.32;;;7.53;;
13847;SDS011;6994;49.752;6.094;2022-09-12T09:27:04;9.48;;;7.40;;
13847;SDS011;6994;49.752;6.094;2022-09-12T09:29:42;7.40;;;6.62;;
13847;SDS011;6994;49.752;6.094;2022-09-12T09:32:15;7.85;;;7.05;;
13847;SDS011;6994;49.752;6.094;2022-09-12T09:34:40;7.85;;;5.87;;
13847;SDS011;6994;49.752;6.094;2022-09-12T09:37:12;6.60;;;6.00;;
13847;SDS011;6994;49.752;6.094;2022-09-12T09:45:26;7.20;;;4.97;;
13847;SDS011;6994;49.752;6.094;2022-09-12T09:47:56;8.15;;;4.95;;
13847;SDS011;6994;49.752;6.094;2022-09-12T09:50:26;6.68;;;5.93;;
13847;SDS011;6994;49.752;6.094;2022-09-12T09:52:54;8.55;;;5.68;;
13847;SDS011;6994;49.752;6.094;2022-09-12T09:55:22;6.57;;;5.97;;
13847;SDS011;6994;49.752;6.094;2022-09-12T09:57:48;5.40;;;4.90;;
13847;SDS011;6994;49.752;6.094;2022-09-12T10:02:59;7.45;;;4.75;;
13847;SDS011;6994;49.752;6.094;2022-09-12T10:05:46;4.57;;;4.15;;
13847;SDS011;6994;49.752;6.094;2022-09-12T10:08:22;4.32;;;4.03;;
13847;SDS011;6994;49.752;6.094;2022-09-12T10:10:52;3.50;;;3.17;;
13847;SDS011;6994;49.752;6.094;2022-09-12T10:13:23;3.67;;;3.37;;
13847;SDS011;6994;49.752;6.094;2022-09-12T10:16:02;6.03;;;3.03;;
13847;SDS011;6994;49.752;6.094;2022-09-12T10:18:35;3.05;;;2.30;;
13847;SDS011;6994;49.752;6.094;2022-09-12T10:21:05;4.10;;;3.00;;
13847;SDS011;6994;49.752;6.094;2022-09-12T10:25:59;3.00;;;2.70;;
13847;SDS011;6994;49.752;6.094;2022-09-12T10:31:16;2.22;;;2.12;;
13847;SDS011;6994;49.752;6.094;2022-09-12T10:33:43;2.17;;;2.08;;
13847;SDS011;6994;49.752;6.094;2022-09-12T10:36:09;5.87;;;2.58;;
13847;SDS011;6994;49.752;6.094;2022-09-12T10:38:37;4.70;;;2.15;;
13847;SDS011;6994;49.752;6.094;2022-09-12T10:41:07;2.42;;;2.22;;
13847;SDS011;6994;49.752;6.094;2022-09-12T10:43:35;2.83;;;2.60;;
13847;SDS011;6994;49.752;6.094;2022-09-12T10:48:47;2.10;;;1.98;;
13847;SDS011;6994;49.752;6.094;2022-09-12T10:53:50;1.85;;;1.55;;
13847;SDS011;6994;49.752;6.094;2022-09-12T10:56:30;1.50;;;1.40;;
13847;SDS011;6994;49.752;6.094;2022-09-12T11:12:14;1.70;;;1.60;;
13847;SDS011;6994;49.752;6.094;2022-09-12T11:20:05;2.33;;;1.12;;
13847;SDS011;6994;49.752;6.094;2022-09-12T11:22:41;1.10;;;0.90;;
13847;SDS011;6994;49.752;6.094;2022-09-12T11:33:40;2.95;;;0.93;;
13847;SDS011;6994;49.752;6.094;2022-09-12T11:36:24;1.05;;;0.70;;
13847;SDS011;6994;49.752;6.094;2022-09-12T11:39:05;1.20;;;1.10;;
13847;SDS011;6994;49.752;6.094;2022-09-12T11:41:29;0.70;;;0.70;;
13847;SDS011;6994;49.752;6.094;2022-09-12T11:46:47;2.28;;;1.02;;
13847;SDS011;6994;49.752;6.094;2022-09-12T11:49:25;2.37;;;1.17;;
13847;SDS011;6994;49.752;6.094;2022-09-12T11:52:10;0.88;;;0.88;;
13847;SDS011;6994;49.752;6.094;2022-09-12T11:57:25;1.05;;;1.05;;
13847;SDS011;6994;49.752;6.094;2022-09-12T11:59:56;1.00;;;1.00;;
13847;SDS011;6994;49.752;6.094;2022-09-12T12:07:54;1.40;;;1.00;;
13847;SDS011;6994;49.752;6.094;2022-09-12T12:10:31;1.70;;;0.90;;
13847;SDS011;6994;49.752;6.094;2022-09-12T12:12:59;2.22;;;1.08;;
13847;SDS011;6994;49.752;6.094;2022-09-12T12:15:26;0.93;;;0.80;;
13847;SDS011;6994;49.752;6.094;2022-09-12T12:20:42;1.75;;;1.10;;
13847;SDS011;6994;49.752;6.094;2022-09-12T12:23:22;1.75;;;1.00;;
13847;SDS011;6994;49.752;6.094;2022-09-12T12:25:53;0.98;;;0.80;;
13847;SDS011;6994;49.752;6.094;2022-09-12T12:31:08;1.15;;;1.05;;
13847;SDS011;6994;49.752;6.094;2022-09-12T12:36:11;2.10;;;1.10;;
13847;SDS011;6994;49.752;6.094;2022-09-12T12:38:36;2.40;;;1.40;;
13847;SDS011;6994;49.752;6.094;2022-09-12T12:43:43;1.67;;;0.90;;
13847;SDS011;6994;49.752;6.094;2022-09-12T12:46:19;0.95;;;0.95;;
13847;SDS011;6994;49.752;6.094;2022-09-12T12:51:37;1.35;;;0.90;;
13847;SDS011;6994;49.752;6.094;2022-09-12T12:55:03;2.40;;;1.00;;
13847;SDS011;6994;49.752;6.094;2022-09-12T12:59:58;1.08;;;1.08;;
13847;SDS011;6994;49.752;6.094;2022-09-12T13:02:37;2.42;;;1.15;;
13847;SDS011;6994;49.752;6.094;2022-09-12T13:05:01;1.85;;;1.00;;
13847;SDS011;6994;49.752;6.094;2022-09-12T13:07:31;1.00;;;1.00;;
13847;SDS011;6994;49.752;6.094;2022-09-12T13:09:55;1.00;;;1.00;;
13847;SDS011;6994;49.752;6.094;2022-09-12T13:12:29;1.20;;;1.10;;
13847;SDS011;6994;49.752;6.094;2022-09-12T13:14:55;1.02;;;1.00;;
13847;SDS011;6994;49.752;6.094;2022-09-12T13:17:27;2.30;;;1.00;;
13847;SDS011;6994;49.752;6.094;2022-09-12T13:19:51;1.33;;;1.20;;
13847;SDS011;6994;49.752;6.094;2022-09-12T13:22:18;1.08;;;1.08;;
13847;SDS011;6994;49.752;6.094;2022-09-12T13:24:46;3.12;;;1.17;;
13847;SDS011;6994;49.752;6.094;2022-09-12T13:27:20;1.30;;;1.20;;
13847;SDS011;6994;49.752;6.094;2022-09-12T13:29:47;1.45;;;1.35;;
13847;SDS011;6994;49.752;6.094;2022-09-12T13:32:14;2.90;;;1.33;;
13847;SDS011;6994;49.752;6.094;2022-09-12T13:35:06;1.10;;;0.90;;
13847;SDS011;6994;49.752;6.094;2022-09-12T13:37:37;1.35;;;1.00;;
13847;SDS011;6994;49.752;6.094;2022-09-12T13:41:07;1.23;;;1.12;;
13847;SDS011;6994;49.752;6.094;2022-09-12T13:42:43;1.75;;;1.30;;
13847;SDS011;6994;49.752;6.094;2022-09-12T13:45:18;1.40;;;1.00;;
13847;SDS011;6994;49.752;6.094;2022-09-12T13:47:51;1.45;;;1.15;;
13847;SDS011;6994;49.752;6.094;2022-09-12T13:50:18;2.25;;;1.00;;
13847;SDS011;6994;49.752;6.094;2022-09-12T13:52:54;2.80;;;1.10;;
13847;SDS011;6994;49.752;6.094;2022-09-12T13:55:25;1.95;;;1.23;;
13847;SDS011;6994;49.752;6.094;2022-09-12T13:58:05;1.92;;;1.48;;
13847;SDS011;6994;49.752;6.094;2022-09-12T14:00:32;1.45;;;1.12;;
13847;SDS011;6994;49.752;6.094;2022-09-12T14:02:59;0.95;;;0.95;;
13847;SDS011;6994;49.752;6.094;2022-09-12T14:05:32;1.73;;;1.40;;
13847;SDS011;6994;49.752;6.094;2022-09-12T14:08:00;3.30;;;1.30;;
13847;SDS011;6994;49.752;6.094;2022-09-12T14:13:14;2.10;;;1.10;;
13847;SDS011;6994;49.752;6.094;2022-09-12T14:15:48;1.00;;;1.00;;
13847;SDS011;6994;49.752;6.094;2022-09-12T14:18:24;0.75;;;0.75;;
13847;SDS011;6994;49.752;6.094;2022-09-12T14:20:51;1.00;;;1.00;;
13847;SDS011;6994;49.752;6.094;2022-09-12T14:23:31;1.25;;;1.10;;
13847;SDS011;6994;49.752;6.094;2022-09-12T14:26:01;1.60;;;0.73;;
13847;SDS011;6994;49.752;6.094;2022-09-12T14:28:28;1.55;;;0.98;;
13847;SDS011;6994;49.752;6.094;2022-09-12T14:33:50;0.80;;;0.80;;
13847;SDS011;6994;49.752;6.094;2022-09-12T14:36:26;0.62;;;0.62;;
13847;SDS011;6994;49.752;6.094;2022-09-12T14:38:56;1.37;;;0.80;;
13847;SDS011;6994;49.752;6.094;2022-09-12T14:41:26;0.73;;;0.73;;
13847;SDS011;6994;49.752;6.094;2022-09-12T14:43:59;1.30;;;1.07;;
13847;SDS011;6994;49.752;6.094;2022-09-12T14:46:25;1.87;;;0.90;;
13847;SDS011;6994;49.752;6.094;2022-09-12T14:48:55;1.40;;;1.23;;
13847;SDS011;6994;49.752;6.094;2022-09-12T14:51:29;1.10;;;0.80;;
13847;SDS011;6994;49.752;6.094;2022-09-12T14:53:54;0.85;;;0.85;;
13847;SDS011;6994;49.752;6.094;2022-09-12T14:56:21;1.10;;;1.00;;
13847;SDS011;6994;49.752;6.094;2022-09-12T14:58:48;1.73;;;1.08;;
13847;SDS011;6994;49.752;6.094;2022-09-12T15:01:22;1.08;;;0.90;;
13847;SDS011;6994;49.752;6.094;2022-09-12T15:03:50;1.00;;;0.90;;
13847;SDS011;6994;49.752;6.094;2022-09-12T15:06:20;2.25;;;1.02;;
13847;SDS011;6994;49.752;6.094;2022-09-12T15:08:59;1.10;;;1.00;;
13847;SDS011;6994;49.752;6.094;2022-09-12T15:11:22;0.70;;;0.70;;
13847;SDS011;6994;49.752;6.094;2022-09-12T15:13:49;3.90;;;1.10;;
13847;SDS011;6994;49.752;6.094;2022-09-12T15:16:17;1.23;;;1.10;;
13847;SDS011;6994;49.752;6.094;2022-09-12T15:18:45;1.08;;;0.98;;
13847;SDS011;6994;49.752;6.094;2022-09-12T15:21:16;1.12;;;0.70;;
13847;SDS011;6994;49.752;6.094;2022-09-12T15:23:40;1.20;;;0.90;;
13847;SDS011;6994;49.752;6.094;2022-09-12T15:26:08;2.83;;;1.10;;
13847;SDS011;6994;49.752;6.094;2022-09-12T15:28:34;2.28;;;0.80;;
13847;SDS011;6994;49.752;6.094;2022-09-12T15:31:11;1.05;;;1.00;;
13847;SDS011;6994;49.752;6.094;2022-09-12T15:33:37;1.73;;;1.42;;
13847;SDS011;6994;49.752;6.094;2022-09-12T15:36:08;2.60;;;1.12;;
13847;SDS011;6994;49.752;6.094;2022-09-12T15:38:31;1.25;;;1.15;;
13847;SDS011;6994;49.752;6.094;2022-09-12T15:40:59;1.62;;;1.20;;
13847;SDS011;6994;49.752;6.094;2022-09-12T15:43:27;1.65;;;0.90;;
13847;SDS011;6994;49.752;6.094;2022-09-12T15:45:55;2.58;;;0.85;;
13847;SDS011;6994;49.752;6.094;2022-09-12T15:48:23;2.15;;;0.90;;
13847;SDS011;6994;49.752;6.094;2022-09-12T15:50:50;0.80;;;0.80;;
13847;SDS011;6994;49.752;6.094;2022-09-12T15:53:18;1.33;;;1.05;;
13847;SDS011;6994;49.752;6.094;2022-09-12T15:55:45;2.80;;;1.40;;
13847;SDS011;6994;49.752;6.094;2022-09-12T15:58:12;1.08;;;0.90;;
13847;SDS011;6994;49.752;6.094;2022-09-12T16:00:39;1.40;;;1.30;;
13847;SDS011;6994;49.752;6.094;2022-09-12T16:03:08;1.15;;;0.77;;
13847;SDS011;6994;49.752;6.094;2022-09-12T16:05:34;1.55;;;1.10;;
13847;SDS011;6994;49.752;6.094;2022-09-12T16:08:01;1.00;;;0.80;;
13847;SDS011;6994;49.752;6.094;2022-09-12T16:10:28;1.77;;;1.20;;
13847;SDS011;6994;49.752;6.094;2022-09-12T16:12:56;1.15;;;1.10;;
13847;SDS011;6994;49.752;6.094;2022-09-12T16:15:24;2.67;;;1.00;;
13847;SDS011;6994;49.752;6.094;2022-09-12T16:17:51;2.35;;;0.98;;
13847;SDS011;6994;49.752;6.094;2022-09-12T16:20:19;0.70;;;0.70;;
13847;SDS011;6994;49.752;6.094;2022-09-12T16:22:46;1.15;;;1.10;;
13847;SDS011;6994;49.752;6.094;2022-09-12T16:25:13;1.30;;;1.10;;
13847;SDS011;6994;49.752;6.094;2022-09-12T16:27:40;3.10;;;1.20;;
13847;SDS011;6994;49.752;6.094;2022-09-12T16:30:07;1.20;;;0.73;;
13847;SDS011;6994;49.752;6.094;2022-09-12T16:32:34;1.23;;;1.12;;
13847;SDS011;6994;49.752;6.094;2022-09-12T16:35:02;3.25;;;1.30;;
13847;SDS011;6994;49.752;6.094;2022-09-12T16:37:30;2.17;;;1.52;;
13847;SDS011;6994;49.752;6.094;2022-09-12T16:39:57;1.20;;;1.10;;
13847;SDS011;6994;49.752;6.094;2022-09-12T16:42:25;1.00;;;0.90;;
13847;SDS011;6994;49.752;6.094;2022-09-12T16:44:52;1.15;;;1.05;;
13847;SDS011;6994;49.752;6.094;2022-09-12T16:47:19;3.10;;;1.05;;
13847;SDS011;6994;49.752;6.094;2022-09-12T16:49:46;2.62;;;1.30;;
13847;SDS011;6994;49.752;6.094;2022-09-12T16:52:14;1.27;;;1.15;;
13847;SDS011;6994;49.752;6.094;2022-09-12T16:54:41;4.12;;;1.30;;
13847;SDS011;6994;49.752;6.094;2022-09-12T16:57:08;1.45;;;1.35;;
13847;SDS011;6994;49.752;6.094;2022-09-12T16:59:35;1.17;;;0.93;;
13847;SDS011;6994;49.752;6.094;2022-09-12T17:02:03;2.65;;;1.60;;
13847;SDS011;6994;49.752;6.094;2022-09-12T17:04:31;1.92;;;1.73;;
13847;SDS011;6994;49.752;6.094;2022-09-12T17:06:59;3.00;;;1.40;;
13847;SDS011;6994;49.752;6.094;2022-09-12T17:09:26;1.80;;;1.10;;
13847;SDS011;6994;49.752;6.094;2022-09-12T17:11:54;1.83;;;1.25;;
13847;SDS011;6994;49.752;6.094;2022-09-12T17:14:21;3.08;;;1.27;;
13847;SDS011;6994;49.752;6.094;2022-09-12T17:16:48;1.90;;;1.15;;